sensor_id;sensor_type;location;lat;lon;timestamp;pressure;altitude;pressure_sealevel;temperature;humidity
41264;BME280;26998;48.714;9.414;2022-11-27T00:01:19;100179.50;;;-0.14;100.00
41264;BME280;26998;48.714;9.414;2022-11-27T00:03:45;100172.94;;;-0.21;100.00
41264;BME280;26998;48.714;9.414;2022-11-27T00:06:14;100171.63;;;-0.28;100.00
41264;BME280;26998;48.714;9.414;2022-11-27T00:08:42;100178.41;;;-0.24;100.00
41264;BME280;26998;48.714;9.414;2022-11-27T00:11:23;100174.63;;;-0.20;100.00
41264;BME280;26998;48.714;9.414;2022-11-27T00:13:50;100171.81;;;-0.17;100.00
41264;BME280;26998;48.714;9.414;2022-11-27T00:16:17;100162.44;;;-0.21;100.00
41264;BME280;26998;48.714;9.414;2022-11-27T00:18:44;100161.41;;;-0.18;100.00
41264;BME280;26998;48.714;9.414;2022-11-27T00:21:14;100155.38;;;-0.20;100.00
41264;BME280;26998;48.714;9.414;2022-11-27T00:23:41;100152.25;;;-0.13;100.00
41264;BME280;26998;48.714;9.414;2022-11-27T00:26:09;100142.72;;;-0.28;100.00
41264;BME280;26998;48.714;9.414;2022-11-27T00:28:36;100144.19;;;-0.37;100.00
41264;BME280;26998;48.714;9.414;2022-11-27T00:31:11;100150.91;;;-0.33;100.00
41264;BME280;26998;48.714;9.414;2022-11-27T00:33:39;100137.16;;;-0.51;100.00
41264;BME280;26998;48.714;9.414;2022-11-27T00:36:06;100142.25;;;-0.62;100.00
41264;BME280;26998;48.714;9.414;2022-11-27T00:38:34;100138.28;;;-0.69;100.00
41264;BME280;26998;48.714;9.414;2022-11-27T00:41:06;100143.53;;;-0.69;100.00
41264;BME280;26998;48.714;9.414;2022-11-27T00:43:34;100133.03;;;-0.69;100.00
41264;BME280;26998;48.714;9.414;2022-11-27T00:46:11;100130.88;;;-0.62;100.00
41264;BME280;26998;48.714;9.414;2022-11-27T00:48:37;100129.31;;;-0.65;100.00
41264;BME280;26998;48.714;9.414;2022-11-27T00:51:06;100117.84;;;-0.64;100.00
41264;BME280;26998;48.714;9.414;2022-11-27T00:53:33;100124.25;;;-0.68;100.00
41264;BME280;26998;48.714;9.414;2022-11-27T00:56:00;100116.38;;;-0.68;100.00
41264;BME280;26998;48.714;9.414;2022-11-27T00:58:26;100106.44;;;-0.77;100.00
41264;BME280;26998;48.714;9.414;2022-11-27T01:00:59;100095.00;;;-0.90;100.00
41264;BME280;26998;48.714;9.414;2022-11-27T01:03:26;100091.81;;;-0.96;100.00
41264;BME280;26998;48.714;9.414;2022-11-27T01:05:54;100081.78;;;-1.03;100.00
41264;BME280;26998;48.714;9.414;2022-11-27T01:08:21;100077.41;;;-1.03;100.00
41264;BME280;26998;48.714;9.414;2022-11-27T01:10:49;100077.75;;;-0.95;100.00
41264;BME280;26998;48.714;9.414;2022-11-27T01:13:31;100078.97;;;-1.00;100.00
41264;BME280;26998;48.714;9.414;2022-11-27T01:16:11;100074.97;;;-1.06;100.00
41264;BME280;26998;48.714;9.414;2022-11-27T01:18:41;100072.69;;;-0.98;100.00
41264;BME280;26998;48.714;9.414;2022-11-27T01:21:09;100062.38;;;-0.86;100.00
41264;BME280;26998;48.714;9.414;2022-11-27T01:23:36;100058.06;;;-0.87;100.00
41264;BME280;26998;48.714;9.414;2022-11-27T01:26:07;100057.31;;;-0.89;100.00
41264;BME280;26998;48.714;9.414;2022-11-27T01:28:34;100055.81;;;-0.94;100.00
41264;BME280;26998;48.714;9.414;2022-11-27T01:31:18;100043.56;;;-0.93;100.00
41264;BME280;26998;48.714;9.414;2022-11-27T01:33:45;100044.66;;;-0.83;100.00
41264;BME280;26998;48.714;9.414;2022-11-27T01:36:14;100045.03;;;-0.75;100.00
41264;BME280;26998;48.714;9.414;2022-11-27T01:38:41;100049.13;;;-0.71;100.00
41264;BME280;26998;48.714;9.414;2022-11-27T01:41:23;100046.13;;;-0.79;100.00
41264;BME280;26998;48.714;9.414;2022-11-27T01:43:53;100038.19;;;-0.91;100.00
41264;BME280;26998;48.714;9.414;2022-11-27T01:46:41;100032.88;;;-0.90;100.00
41264;BME280;26998;48.714;9.414;2022-11-27T01:49:23;100029.19;;;-0.87;100.00
41264;BME280;26998;48.714;9.414;2022-11-27T01:51:55;100018.41;;;-0.97;100.00
41264;BME280;26998;48.714;9.414;2022-11-27T01:54:27;100009.72;;;-0.98;100.00
41264;BME280;26998;48.714;9.414;2022-11-27T01:56:57;100012.25;;;-0.96;100.00
41264;BME280;26998;48.714;9.414;2022-11-27T01:59:24;100001.66;;;-0.95;100.00
41264;BME280;26998;48.714;9.414;2022-11-27T02:01:51;99995.88;;;-1.00;100.00
41264;BME280;26998;48.714;9.414;2022-11-27T02:04:18;99997.53;;;-0.99;100.00
41264;BME280;26998;48.714;9.414;2022-11-27T02:06:47;99999.13;;;-0.96;100.00
41264;BME280;26998;48.714;9.414;2022-11-27T02:09:13;99994.53;;;-0.93;100.00
41264;BME280;26998;48.714;9.414;2022-11-27T02:14:38;99986.34;;;-1.15;100.00
41264;BME280;26998;48.714;9.414;2022-11-27T02:17:56;99976.09;;;-1.05;100.00
41264;BME280;26998;48.714;9.414;2022-11-27T02:26:17;99985.56;;;-1.03;100.00
41264;BME280;26998;48.714;9.414;2022-11-27T02:29:00;99974.25;;;-0.90;100.00
41264;BME280;26998;48.714;9.414;2022-11-27T02:31:35;99987.00;;;-0.84;100.00
41264;BME280;26998;48.714;9.414;2022-11-27T02:36:45;99966.59;;;-0.94;100.00
41264;BME280;26998;48.714;9.414;2022-11-27T02:39:19;99977.94;;;-0.93;100.00
41264;BME280;26998;48.714;9.414;2022-11-27T02:41:51;99982.13;;;-0.90;100.00
41264;BME280;26998;48.714;9.414;2022-11-27T02:44:20;99994.59;;;-0.80;100.00
41264;BME280;26998;48.714;9.414;2022-11-27T02:46:48;99991.97;;;-0.80;100.00
41264;BME280;26998;48.714;9.414;2022-11-27T02:49:17;99988.59;;;-0.82;100.00
41264;BME280;26998;48.714;9.414;2022-11-27T02:51:50;99986.84;;;-0.96;100.00
41264;BME280;26998;48.714;9.414;2022-11-27T02:54:25;99978.91;;;-1.08;100.00
41264;BME280;26998;48.714;9.414;2022-11-27T02:56:52;99985.94;;;-1.09;100.00
41264;BME280;26998;48.714;9.414;2022-11-27T02:59:21;99982.75;;;-1.00;100.00
41264;BME280;26998;48.714;9.414;2022-11-27T03:01:55;99971.94;;;-0.95;100.00
41264;BME280;26998;48.714;9.414;2022-11-27T03:04:27;99969.22;;;-0.94;100.00
41264;BME280;26998;48.714;9.414;2022-11-27T03:06:57;99971.56;;;-0.89;100.00
41264;BME280;26998;48.714;9.414;2022-11-27T03:09:33;99966.34;;;-0.76;100.00
41264;BME280;26998;48.714;9.414;2022-11-27T03:12:02;99965.16;;;-0.85;100.00
41264;BME280;26998;48.714;9.414;2022-11-27T03:14:33;99963.97;;;-0.94;100.00
41264;BME280;26998;48.714;9.414;2022-11-27T03:19:42;99968.53;;;-0.83;100.00
41264;BME280;26998;48.714;9.414;2022-11-27T03:22:11;99967.41;;;-0.79;100.00
41264;BME280;26998;48.714;9.414;2022-11-27T03:24:38;99966.09;;;-0.72;100.00
41264;BME280;26998;48.714;9.414;2022-11-27T03:27:05;99981.72;;;-0.70;100.00
41264;BME280;26998;48.714;9.414;2022-11-27T03:29:59;99966.41;;;-0.63;100.00
41264;BME280;26998;48.714;9.414;2022-11-27T03:32:27;99967.94;;;-0.74;100.00
41264;BME280;26998;48.714;9.414;2022-11-27T03:34:55;99972.31;;;-0.87;100.00
41264;BME280;26998;48.714;9.414;2022-11-27T03:37:22;99959.38;;;-0.90;100.00
41264;BME280;26998;48.714;9.414;2022-11-27T03:39:50;99958.72;;;-0.94;100.00
41264;BME280;26998;48.714;9.414;2022-11-27T03:42:30;99948.84;;;-1.03;100.00
41264;BME280;26998;48.714;9.414;2022-11-27T03:50:45;99959.41;;;-1.19;100.00
41264;BME280;26998;48.714;9.414;2022-11-27T03:56:16;99961.13;;;-1.32;100.00
41264;BME280;26998;48.714;9.414;2022-11-27T03:58:54;99953.47;;;-1.35;100.00
41264;BME280;26998;48.714;9.414;2022-11-27T04:01:24;99956.19;;;-1.36;100.00
41264;BME280;26998;48.714;9.414;2022-11-27T04:03:52;99962.47;;;-1.39;100.00
41264;BME280;26998;48.714;9.414;2022-11-27T04:06:18;99955.81;;;-1.45;100.00
41264;BME280;26998;48.714;9.414;2022-11-27T04:08:45;99956.47;;;-1.41;100.00
41264;BME280;26998;48.714;9.414;2022-11-27T04:11:12;99949.63;;;-1.44;100.00
41264;BME280;26998;48.714;9.414;2022-11-27T04:13:39;99944.19;;;-1.26;100.00
41264;BME280;26998;48.714;9.414;2022-11-27T04:16:08;99940.66;;;-1.40;100.00
41264;BME280;26998;48.714;9.414;2022-11-27T04:18:35;99938.28;;;-1.44;100.00
41264;BME280;26998;48.714;9.414;2022-11-27T04:21:01;99937.66;;;-1.33;100.00
41264;BME280;26998;48.714;9.414;2022-11-27T04:23:29;99941.19;;;-1.34;100.00
41264;BME280;26998;48.714;9.414;2022-11-27T04:25:56;99937.91;;;-1.24;100.00
41264;BME280;26998;48.714;9.414;2022-11-27T04:28:22;99942.84;;;-1.19;100.00
41264;BME280;26998;48.714;9.414;2022-11-27T04:30:51;99940.16;;;-1.32;100.00
41264;BME280;26998;48.714;9.414;2022-11-27T04:33:18;99946.34;;;-1.33;100.00
41264;BME280;26998;48.714;9.414;2022-11-27T04:35:45;99938.38;;;-1.31;100.00
41264;BME280;26998;48.714;9.414;2022-11-27T04:38:12;99934.44;;;-1.38;100.00
41264;BME280;26998;48.714;9.414;2022-11-27T04:40:38;99936.50;;;-1.29;100.00
41264;BME280;26998;48.714;9.414;2022-11-27T04:43:05;99923.69;;;-1.34;100.00
41264;BME280;26998;48.714;9.414;2022-11-27T04:45:32;99922.19;;;-1.38;100.00
41264;BME280;26998;48.714;9.414;2022-11-27T04:47:59;99909.03;;;-1.65;100.00
41264;BME280;26998;48.714;9.414;2022-11-27T04:50:25;99917.63;;;-1.63;100.00
41264;BME280;26998;48.714;9.414;2022-11-27T04:52:52;99911.44;;;-1.62;100.00
41264;BME280;26998;48.714;9.414;2022-11-27T04:55:18;99909.88;;;-1.65;100.00
41264;BME280;26998;48.714;9.414;2022-11-27T04:57:45;99912.88;;;-1.71;100.00
41264;BME280;26998;48.714;9.414;2022-11-27T05:00:12;99917.34;;;-1.58;100.00
41264;BME280;26998;48.714;9.414;2022-11-27T05:02:39;99911.44;;;-1.48;100.00
41264;BME280;26998;48.714;9.414;2022-11-27T05:05:05;99917.78;;;-1.37;100.00
41264;BME280;26998;48.714;9.414;2022-11-27T05:07:32;99918.44;;;-1.34;100.00
41264;BME280;26998;48.714;9.414;2022-11-27T05:09:58;99918.72;;;-1.24;100.00
41264;BME280;26998;48.714;9.414;2022-11-27T05:12:25;99920.97;;;-1.32;100.00
41264;BME280;26998;48.714;9.414;2022-11-27T05:14:51;99932.13;;;-1.57;100.00
41264;BME280;26998;48.714;9.414;2022-11-27T05:17:20;99923.13;;;-1.39;100.00
41264;BME280;26998;48.714;9.414;2022-11-27T05:19:46;99920.44;;;-1.52;100.00
41264;BME280;26998;48.714;9.414;2022-11-27T05:22:17;99913.66;;;-1.56;100.00
41264;BME280;26998;48.714;9.414;2022-11-27T05:24:46;99901.31;;;-1.54;100.00
41264;BME280;26998;48.714;9.414;2022-11-27T05:27:12;99884.22;;;-1.74;100.00
41264;BME280;26998;48.714;9.414;2022-11-27T05:29:39;99878.34;;;-1.77;100.00
41264;BME280;26998;48.714;9.414;2022-11-27T05:32:05;99874.13;;;-1.80;100.00
41264;BME280;26998;48.714;9.414;2022-11-27T05:34:33;99874.56;;;-1.73;100.00
41264;BME280;26998;48.714;9.414;2022-11-27T05:37:00;99887.31;;;-1.67;100.00
41264;BME280;26998;48.714;9.414;2022-11-27T05:39:26;99881.09;;;-1.66;100.00
41264;BME280;26998;48.714;9.414;2022-11-27T05:41:52;99880.75;;;-1.74;100.00
41264;BME280;26998;48.714;9.414;2022-11-27T05:44:19;99884.88;;;-1.70;100.00
41264;BME280;26998;48.714;9.414;2022-11-27T05:46:45;99885.91;;;-1.73;100.00
41264;BME280;26998;48.714;9.414;2022-11-27T05:49:14;99877.47;;;-1.64;100.00
41264;BME280;26998;48.714;9.414;2022-11-27T05:51:44;99882.31;;;-1.57;100.00
41264;BME280;26998;48.714;9.414;2022-11-27T05:54:18;99876.63;;;-1.78;100.00
41264;BME280;26998;48.714;9.414;2022-11-27T05:56:44;99885.06;;;-1.73;100.00
41264;BME280;26998;48.714;9.414;2022-11-27T05:59:11;99887.00;;;-1.63;100.00
41264;BME280;26998;48.714;9.414;2022-11-27T06:01:39;99896.19;;;-1.55;100.00
41264;BME280;26998;48.714;9.414;2022-11-27T06:04:05;99894.59;;;-1.58;100.00
41264;BME280;26998;48.714;9.414;2022-11-27T06:06:32;99896.94;;;-1.68;100.00
41264;BME280;26998;48.714;9.414;2022-11-27T06:08:59;99901.88;;;-1.63;100.00
41264;BME280;26998;48.714;9.414;2022-11-27T06:11:25;99898.63;;;-1.67;100.00
41264;BME280;26998;48.714;9.414;2022-11-27T06:13:52;99899.00;;;-1.73;100.00
41264;BME280;26998;48.714;9.414;2022-11-27T06:16:20;99902.38;;;-1.71;100.00
41264;BME280;26998;48.714;9.414;2022-11-27T06:18:50;99900.88;;;-1.60;100.00
41264;BME280;26998;48.714;9.414;2022-11-27T06:21:18;99907.59;;;-1.56;100.00
41264;BME280;26998;48.714;9.414;2022-11-27T06:23:45;99904.06;;;-1.55;100.00
41264;BME280;26998;48.714;9.414;2022-11-27T06:26:18;99908.81;;;-1.48;100.00
41264;BME280;26998;48.714;9.414;2022-11-27T06:28:45;99905.91;;;-1.57;100.00
41264;BME280;26998;48.714;9.414;2022-11-27T06:31:14;99909.09;;;-1.52;100.00
41264;BME280;26998;48.714;9.414;2022-11-27T06:33:46;99909.56;;;-1.46;100.00
41264;BME280;26998;48.714;9.414;2022-11-27T06:36:13;99914.91;;;-1.76;100.00
41264;BME280;26998;48.714;9.414;2022-11-27T06:38:41;99917.06;;;-1.82;100.00
41264;BME280;26998;48.714;9.414;2022-11-27T06:41:12;99920.25;;;-1.77;100.00
41264;BME280;26998;48.714;9.414;2022-11-27T06:43:39;99921.00;;;-1.75;100.00
41264;BME280;26998;48.714;9.414;2022-11-27T06:46:07;99921.38;;;-1.67;100.00
41264;BME280;26998;48.714;9.414;2022-11-27T06:48:34;99925.28;;;-1.60;100.00
41264;BME280;26998;48.714;9.414;2022-11-27T06:51:03;99923.63;;;-1.61;100.00
41264;BME280;26998;48.714;9.414;2022-11-27T06:53:31;99929.22;;;-1.53;100.00
41264;BME280;26998;48.714;9.414;2022-11-27T06:55:58;99924.53;;;-1.48;100.00
41264;BME280;26998;48.714;9.414;2022-11-27T06:58:27;99919.03;;;-1.43;100.00
41264;BME280;26998;48.714;9.414;2022-11-27T07:01:02;99918.91;;;-1.42;100.00
41264;BME280;26998;48.714;9.414;2022-11-27T07:03:29;99920.59;;;-1.41;100.00
41264;BME280;26998;48.714;9.414;2022-11-27T07:05:58;99909.19;;;-1.40;100.00
41264;BME280;26998;48.714;9.414;2022-11-27T07:08:25;99913.03;;;-1.59;100.00
41264;BME280;26998;48.714;9.414;2022-11-27T07:10:52;99915.91;;;-1.50;100.00
41264;BME280;26998;48.714;9.414;2022-11-27T07:13:19;99912.38;;;-1.63;100.00
41264;BME280;26998;48.714;9.414;2022-11-27T07:15:45;99911.06;;;-1.70;100.00
41264;BME280;26998;48.714;9.414;2022-11-27T07:18:11;99894.25;;;-1.80;100.00
41264;BME280;26998;48.714;9.414;2022-11-27T07:20:38;99905.44;;;-1.78;100.00
41264;BME280;26998;48.714;9.414;2022-11-27T07:23:04;99911.44;;;-1.62;100.00
41264;BME280;26998;48.714;9.414;2022-11-27T07:25:31;99912.66;;;-1.53;100.00
41264;BME280;26998;48.714;9.414;2022-11-27T07:27:57;99920.69;;;-1.42;100.00
41264;BME280;26998;48.714;9.414;2022-11-27T07:30:24;99920.63;;;-1.55;100.00
41264;BME280;26998;48.714;9.414;2022-11-27T07:32:50;99919.69;;;-1.68;100.00
41264;BME280;26998;48.714;9.414;2022-11-27T07:35:19;99917.63;;;-1.92;100.00
41264;BME280;26998;48.714;9.414;2022-11-27T07:37:45;99914.06;;;-2.05;100.00
41264;BME280;26998;48.714;9.414;2022-11-27T07:40:12;99904.13;;;-2.00;100.00
41264;BME280;26998;48.714;9.414;2022-11-27T07:42:40;99900.13;;;-2.05;100.00
41264;BME280;26998;48.714;9.414;2022-11-27T07:45:08;99881.13;;;-1.95;100.00
41264;BME280;26998;48.714;9.414;2022-11-27T07:47:37;99871.69;;;-1.83;100.00
41264;BME280;26998;48.714;9.414;2022-11-27T07:50:04;99870.84;;;-1.98;100.00
41264;BME280;26998;48.714;9.414;2022-11-27T07:52:36;99863.72;;;-1.81;100.00
41264;BME280;26998;48.714;9.414;2022-11-27T07:55:07;99855.28;;;-1.72;100.00
41264;BME280;26998;48.714;9.414;2022-11-27T07:57:34;99860.25;;;-1.82;100.00
41264;BME280;26998;48.714;9.414;2022-11-27T08:00:00;99858.19;;;-1.91;100.00
41264;BME280;26998;48.714;9.414;2022-11-27T08:02:27;99852.97;;;-2.05;100.00
41264;BME280;26998;48.714;9.414;2022-11-27T08:04:55;99861.56;;;-1.89;100.00
41264;BME280;26998;48.714;9.414;2022-11-27T08:07:28;99860.28;;;-1.96;100.00
41264;BME280;26998;48.714;9.414;2022-11-27T08:09:55;99853.06;;;-2.07;100.00
41264;BME280;26998;48.714;9.414;2022-11-27T08:12:23;99840.69;;;-2.19;100.00
41264;BME280;26998;48.714;9.414;2022-11-27T08:14:50;99839.22;;;-1.95;100.00
41264;BME280;26998;48.714;9.414;2022-11-27T08:17:18;99835.84;;;-1.97;100.00
41264;BME280;26998;48.714;9.414;2022-11-27T08:19:44;99839.47;;;-1.85;100.00
41264;BME280;26998;48.714;9.414;2022-11-27T08:22:12;99836.22;;;-1.89;100.00
41264;BME280;26998;48.714;9.414;2022-11-27T08:24:39;99855.56;;;-1.91;100.00
41264;BME280;26998;48.714;9.414;2022-11-27T08:27:09;99855.03;;;-1.96;100.00
41264;BME280;26998;48.714;9.414;2022-11-27T08:29:37;99845.47;;;-1.97;100.00
41264;BME280;26998;48.714;9.414;2022-11-27T08:32:04;99837.25;;;-1.91;100.00
41264;BME280;26998;48.714;9.414;2022-11-27T08:34:31;99826.59;;;-2.02;100.00
41264;BME280;26998;48.714;9.414;2022-11-27T08:36:58;99818.91;;;-1.91;100.00
41264;BME280;26998;48.714;9.414;2022-11-27T08:39:24;99823.88;;;-2.01;100.00
41264;BME280;26998;48.714;9.414;2022-11-27T08:41:52;99823.88;;;-2.01;100.00
41264;BME280;26998;48.714;9.414;2022-11-27T08:44:19;99816.72;;;-1.70;100.00
41264;BME280;26998;48.714;9.414;2022-11-27T08:46:46;99818.25;;;-1.80;100.00
41264;BME280;26998;48.714;9.414;2022-11-27T08:49:12;99827.13;;;-1.83;100.00
41264;BME280;26998;48.714;9.414;2022-11-27T08:51:39;99830.84;;;-1.58;100.00
41264;BME280;26998;48.714;9.414;2022-11-27T08:54:05;99829.13;;;-1.59;100.00
41264;BME280;26998;48.714;9.414;2022-11-27T08:56:32;99817.81;;;-1.60;100.00
41264;BME280;26998;48.714;9.414;2022-11-27T08:58:59;99818.25;;;-1.53;100.00
41264;BME280;26998;48.714;9.414;2022-11-27T09:01:28;99813.59;;;-1.48;100.00
41264;BME280;26998;48.714;9.414;2022-11-27T09:03:55;99801.94;;;-1.17;100.00
41264;BME280;26998;48.714;9.414;2022-11-27T09:06:23;99800.63;;;-0.97;100.00
41264;BME280;26998;48.714;9.414;2022-11-27T09:08:50;99799.94;;;-0.74;100.00
41264;BME280;26998;48.714;9.414;2022-11-27T09:11:18;99787.88;;;-0.76;100.00
41264;BME280;26998;48.714;9.414;2022-11-27T09:13:46;99791.75;;;-0.56;100.00
41264;BME280;26998;48.714;9.414;2022-11-27T09:16:15;99796.50;;;-0.74;100.00
41264;BME280;26998;48.714;9.414;2022-11-27T09:18:43;99803.63;;;-0.76;100.00
41264;BME280;26998;48.714;9.414;2022-11-27T09:21:11;99800.03;;;-0.75;100.00
41264;BME280;26998;48.714;9.414;2022-11-27T09:23:38;99804.22;;;-0.85;100.00
41264;BME280;26998;48.714;9.414;2022-11-27T09:26:07;99823.25;;;-0.69;100.00
41264;BME280;26998;48.714;9.414;2022-11-27T09:28:35;99838.09;;;-0.68;100.00
41264;BME280;26998;48.714;9.414;2022-11-27T09:31:04;99861.22;;;-0.35;100.00
41264;BME280;26998;48.714;9.414;2022-11-27T09:33:33;99869.72;;;-0.31;100.00
41264;BME280;26998;48.714;9.414;2022-11-27T09:36:07;99884.75;;;-0.33;100.00
41264;BME280;26998;48.714;9.414;2022-11-27T09:38:35;99914.31;;;-0.17;100.00
41264;BME280;26998;48.714;9.414;2022-11-27T09:43:57;99976.88;;;0.16;100.00
41264;BME280;26998;48.714;9.414;2022-11-27T09:46:30;100012.84;;;0.16;100.00
41264;BME280;26998;48.714;9.414;2022-11-27T09:48:59;100021.75;;;0.01;100.00
41264;BME280;26998;48.714;9.414;2022-11-27T09:51:30;100012.03;;;-0.25;100.00
41264;BME280;26998;48.714;9.414;2022-11-27T09:56:28;100001.69;;;0.12;100.00
41264;BME280;26998;48.714;9.414;2022-11-27T09:58:58;100007.19;;;0.22;100.00
41264;BME280;26998;48.714;9.414;2022-11-27T10:01:29;100015.16;;;0.46;100.00
41264;BME280;26998;48.714;9.414;2022-11-27T10:04:13;100029.69;;;0.52;100.00
41264;BME280;26998;48.714;9.414;2022-11-27T10:06:49;100048.09;;;0.52;100.00
41264;BME280;26998;48.714;9.414;2022-11-27T10:15:02;100028.91;;;0.11;100.00
41264;BME280;26998;48.714;9.414;2022-11-27T10:17:48;100020.13;;;0.25;100.00
41264;BME280;26998;48.714;9.414;2022-11-27T10:20:40;100006.00;;;0.77;100.00
41264;BME280;26998;48.714;9.414;2022-11-27T10:26:12;99991.41;;;0.48;100.00
41264;BME280;26998;48.714;9.414;2022-11-27T10:28:49;99989.31;;;1.02;100.00
41264;BME280;26998;48.714;9.414;2022-11-27T10:31:31;100000.09;;;1.23;100.00
41264;BME280;26998;48.714;9.414;2022-11-27T10:36:47;99985.09;;;1.36;100.00
41264;BME280;26998;48.714;9.414;2022-11-27T10:39:31;100008.34;;;1.06;100.00
41264;BME280;26998;48.714;9.414;2022-11-27T10:42:08;100008.53;;;1.28;100.00
41264;BME280;26998;48.714;9.414;2022-11-27T10:44:43;100004.50;;;0.99;100.00
41264;BME280;26998;48.714;9.414;2022-11-27T10:47:12;100000.06;;;1.36;100.00
41264;BME280;26998;48.714;9.414;2022-11-27T10:49:40;99998.56;;;1.45;100.00
41264;BME280;26998;48.714;9.414;2022-11-27T10:52:12;99993.22;;;1.33;100.00
41264;BME280;26998;48.714;9.414;2022-11-27T10:54:40;99992.25;;;1.58;100.00
41264;BME280;26998;48.714;9.414;2022-11-27T11:02:37;99972.28;;;2.02;100.00
41264;BME280;26998;48.714;9.414;2022-11-27T11:05:23;99954.47;;;2.17;100.00
41264;BME280;26998;48.714;9.414;2022-11-27T11:08:16;99948.25;;;2.63;100.00
41264;BME280;26998;48.714;9.414;2022-11-27T11:10:51;99971.31;;;2.84;100.00
41264;BME280;26998;48.714;9.414;2022-11-27T11:13:23;99930.94;;;3.36;100.00
41264;BME280;26998;48.714;9.414;2022-11-27T11:16:04;99870.84;;;3.17;100.00
41264;BME280;26998;48.714;9.414;2022-11-27T11:18:52;99844.28;;;3.51;100.00
41264;BME280;26998;48.714;9.414;2022-11-27T11:21:34;99807.09;;;3.94;100.00
41264;BME280;26998;48.714;9.414;2022-11-27T11:26:57;99708.66;;;4.60;100.00
41264;BME280;26998;48.714;9.414;2022-11-27T11:29:29;99690.47;;;4.07;100.00
41264;BME280;26998;48.714;9.414;2022-11-27T11:32:01;99720.59;;;4.35;100.00
41264;BME280;26998;48.714;9.414;2022-11-27T11:34:29;99691.63;;;4.82;100.00
41264;BME280;26998;48.714;9.414;2022-11-27T11:36:59;99658.06;;;4.63;100.00
41264;BME280;26998;48.714;9.414;2022-11-27T11:39:30;99647.88;;;4.78;100.00
41264;BME280;26998;48.714;9.414;2022-11-27T11:41:59;99643.13;;;4.82;100.00
41264;BME280;26998;48.714;9.414;2022-11-27T11:44:36;99607.47;;;5.51;100.00
41264;BME280;26998;48.714;9.414;2022-11-27T11:47:03;99420.00;;;5.25;100.00
41264;BME280;26998;48.714;9.414;2022-11-27T11:49:32;99416.28;;;5.18;100.00
41264;BME280;26998;48.714;9.414;2022-11-27T11:52:14;99417.91;;;5.01;100.00
41264;BME280;26998;48.714;9.414;2022-11-27T11:55:06;99402.72;;;5.03;100.00
41264;BME280;26998;48.714;9.414;2022-11-27T11:58:05;99396.66;;;5.29;100.00
41264;BME280;26998;48.714;9.414;2022-11-27T12:00:48;99396.34;;;4.96;100.00
41264;BME280;26998;48.714;9.414;2022-11-27T12:18:03;99370.56;;;6.56;100.00
41264;BME280;26998;48.714;9.414;2022-11-27T12:20:50;99363.41;;;6.57;100.00
41264;BME280;26998;48.714;9.414;2022-11-27T12:23:36;99365.09;;;7.08;100.00
41264;BME280;26998;48.714;9.414;2022-11-27T12:26:24;99350.00;;;7.25;100.00
41264;BME280;26998;48.714;9.414;2022-11-27T12:29:02;99336.00;;;7.07;100.00
41264;BME280;26998;48.714;9.414;2022-11-27T12:35:02;99329.72;;;7.65;100.00
41264;BME280;26998;48.714;9.414;2022-11-27T12:41:00;99313.13;;;8.27;100.00
41264;BME280;26998;48.714;9.414;2022-11-27T12:43:43;99309.28;;;8.29;100.00
41264;BME280;26998;48.714;9.414;2022-11-27T12:46:27;99304.75;;;8.77;100.00
41264;BME280;26998;48.714;9.414;2022-11-27T12:49:00;99291.56;;;8.53;100.00
41264;BME280;26998;48.714;9.414;2022-11-27T12:51:33;99285.88;;;8.17;100.00
41264;BME280;26998;48.714;9.414;2022-11-27T12:54:11;99281.53;;;8.63;100.00
41264;BME280;26998;48.714;9.414;2022-11-27T12:56:46;99285.06;;;8.55;100.00
41264;BME280;26998;48.714;9.414;2022-11-27T12:59:34;99286.69;;;9.34;100.00
41264;BME280;26998;48.714;9.414;2022-11-27T13:02:35;99273.78;;;8.76;100.00
41264;BME280;26998;48.714;9.414;2022-11-27T13:05:29;99266.84;;;8.67;100.00
41264;BME280;26998;48.714;9.414;2022-11-27T13:08:44;99260.41;;;8.53;100.00
41264;BME280;26998;48.714;9.414;2022-11-27T13:11:19;99259.66;;;8.45;100.00
41264;BME280;26998;48.714;9.414;2022-11-27T13:13:52;99266.50;;;8.39;100.00
41264;BME280;26998;48.714;9.414;2022-11-27T13:16:25;99267.31;;;8.31;100.00
41264;BME280;26998;48.714;9.414;2022-11-27T13:18:56;99259.81;;;8.74;99.26
41264;BME280;26998;48.714;9.414;2022-11-27T13:21:28;99265.19;;;9.12;95.37
41264;BME280;26998;48.714;9.414;2022-11-27T13:23:59;99270.13;;;9.00;92.97
41264;BME280;26998;48.714;9.414;2022-11-27T13:26:33;99263.94;;;8.54;96.42
41264;BME280;26998;48.714;9.414;2022-11-27T13:29:12;99271.34;;;8.27;98.27
41264;BME280;26998;48.714;9.414;2022-11-27T13:31:41;99258.44;;;8.08;100.00
41264;BME280;26998;48.714;9.414;2022-11-27T13:34:18;99246.75;;;8.17;100.00
41264;BME280;26998;48.714;9.414;2022-11-27T13:36:46;99245.28;;;8.15;100.00
41264;BME280;26998;48.714;9.414;2022-11-27T13:39:30;99236.81;;;8.03;100.00
41264;BME280;26998;48.714;9.414;2022-11-27T13:44:33;99234.16;;;8.03;100.00
41264;BME280;26998;48.714;9.414;2022-11-27T13:47:13;99233.19;;;8.04;100.00
41264;BME280;26998;48.714;9.414;2022-11-27T13:49:41;99226.25;;;7.86;100.00
41264;BME280;26998;48.714;9.414;2022-11-27T13:52:09;99222.28;;;7.82;100.00
41264;BME280;26998;48.714;9.414;2022-11-27T13:54:37;99223.13;;;7.75;100.00
41264;BME280;26998;48.714;9.414;2022-11-27T13:57:17;99219.16;;;7.71;100.00
41264;BME280;26998;48.714;9.414;2022-11-27T14:00:14;99219.97;;;7.63;100.00
41264;BME280;26998;48.714;9.414;2022-11-27T14:02:46;99215.00;;;7.68;100.00
41264;BME280;26998;48.714;9.414;2022-11-27T14:05:16;99220.50;;;7.50;100.00
41264;BME280;26998;48.714;9.414;2022-11-27T14:07:46;99222.19;;;7.43;100.00
41264;BME280;26998;48.714;9.414;2022-11-27T14:10:17;99225.19;;;7.40;100.00
41264;BME280;26998;48.714;9.414;2022-11-27T14:13:02;99212.91;;;7.31;100.00
41264;BME280;26998;48.714;9.414;2022-11-27T14:15:34;99210.91;;;7.33;100.00
41264;BME280;26998;48.714;9.414;2022-11-27T14:18:15;99208.75;;;7.36;100.00
41264;BME280;26998;48.714;9.414;2022-11-27T14:21:00;99203.56;;;7.43;100.00
41264;BME280;26998;48.714;9.414;2022-11-27T14:23:32;99203.44;;;7.28;100.00